sensor_id;sensor_type;location;lat;lon;timestamp;P1;durP1;ratioP1;P2;durP2;ratioP2
59474;SDS011;45288;51.136;16.928;2023-04-15T00:01:28;849.30;;;769.05;;
59474;SDS011;45288;51.136;16.928;2023-04-15T00:03:54;834.35;;;755.00;;
59474;SDS011;45288;51.136;16.928;2023-04-15T00:06:21;844.53;;;765.13;;
59474;SDS011;45288;51.136;16.928;2023-04-15T00:08:47;832.83;;;754.78;;
59474;SDS011;45288;51.136;16.928;2023-04-15T00:11:13;822.63;;;744.90;;
59474;SDS011;45288;51.136;16.928;2023-04-15T00:13:38;839.00;;;759.93;;
59474;SDS011;45288;51.136;16.928;2023-04-15T00:16:04;841.45;;;762.45;;
59474;SDS011;45288;51.136;16.928;2023-04-15T00:18:30;834.83;;;755.83;;
59474;SDS011;45288;51.136;16.928;2023-04-15T00:20:56;825.23;;;747.87;;
59474;SDS011;45288;51.136;16.928;2023-04-15T00:23:22;849.05;;;769.65;;
59474;SDS011;45288;51.136;16.928;2023-04-15T00:25:47;839.55;;;761.20;;
59474;SDS011;45288;51.136;16.928;2023-04-15T00:28:13;829.47;;;751.90;;
59474;SDS011;45288;51.136;16.928;2023-04-15T00:30:39;828.70;;;750.87;;
59474;SDS011;45288;51.136;16.928;2023-04-15T00:33:04;834.37;;;757.07;;
59474;SDS011;45288;51.136;16.928;2023-04-15T00:35:31;837.42;;;759.33;;
59474;SDS011;45288;51.136;16.928;2023-04-15T00:38:02;837.67;;;760.47;;
59474;SDS011;45288;51.136;16.928;2023-04-15T00:40:29;823.30;;;746.05;;
59474;SDS011;45288;51.136;16.928;2023-04-15T00:42:55;809.25;;;733.25;;
59474;SDS011;45288;51.136;16.928;2023-04-15T00:45:20;816.45;;;739.33;;
59474;SDS011;45288;51.136;16.928;2023-04-15T00:47:46;833.23;;;755.70;;
59474;SDS011;45288;51.136;16.928;2023-04-15T00:50:11;819.27;;;742.97;;
59474;SDS011;45288;51.136;16.928;2023-04-15T00:52:37;829.72;;;752.20;;
59474;SDS011;45288;51.136;16.928;2023-04-15T00:55:03;836.85;;;758.83;;
59474;SDS011;45288;51.136;16.928;2023-04-15T00:57:29;823.55;;;745.72;;
59474;SDS011;45288;51.136;16.928;2023-04-15T00:59:56;831.87;;;754.30;;
59474;SDS011;45288;51.136;16.928;2023-04-15T01:02:22;829.60;;;751.35;;
59474;SDS011;45288;51.136;16.928;2023-04-15T01:04:48;806.33;;;730.03;;
59474;SDS011;45288;51.136;16.928;2023-04-15T01:07:14;818.03;;;741.17;;
59474;SDS011;45288;51.136;16.928;2023-04-15T01:09:40;808.23;;;731.07;;
59474;SDS011;45288;51.136;16.928;2023-04-15T01:12:06;807.70;;;731.22;;
59474;SDS011;45288;51.136;16.928;2023-04-15T01:14:34;823.50;;;746.05;;
59474;SDS011;45288;51.136;16.928;2023-04-15T01:17:00;820.25;;;743.63;;
59474;SDS011;45288;51.136;16.928;2023-04-15T01:19:26;818.88;;;741.65;;
59474;SDS011;45288;51.136;16.928;2023-04-15T01:21:53;806.63;;;730.75;;
59474;SDS011;45288;51.136;16.928;2023-04-15T01:24:18;787.70;;;711.90;;
59474;SDS011;45288;51.136;16.928;2023-04-15T01:26:44;803.97;;;727.40;;
59474;SDS011;45288;51.136;16.928;2023-04-15T01:29:11;788.65;;;712.88;;
59474;SDS011;45288;51.136;16.928;2023-04-15T01:31:36;792.95;;;717.28;;
59474;SDS011;45288;51.136;16.928;2023-04-15T01:34:21;797.85;;;721.95;;
59474;SDS011;45288;51.136;16.928;2023-04-15T01:37:05;783.83;;;708.85;;
59474;SDS011;45288;51.136;16.928;2023-04-15T01:39:31;804.77;;;727.97;;
59474;SDS011;45288;51.136;16.928;2023-04-15T01:41:57;801.97;;;725.78;;
59474;SDS011;45288;51.136;16.928;2023-04-15T01:44:23;801.73;;;725.20;;
59474;SDS011;45288;51.136;16.928;2023-04-15T01:46:49;786.73;;;711.17;;
59474;SDS011;45288;51.136;16.928;2023-04-15T01:49:14;789.17;;;713.30;;
59474;SDS011;45288;51.136;16.928;2023-04-15T01:51:40;789.60;;;713.40;;
59474;SDS011;45288;51.136;16.928;2023-04-15T01:54:06;766.90;;;692.58;;
59474;SDS011;45288;51.136;16.928;2023-04-15T01:56:32;767.67;;;692.90;;
59474;SDS011;45288;51.136;16.928;2023-04-15T01:58:57;773.40;;;698.13;;
59474;SDS011;45288;51.136;16.928;2023-04-15T02:01:23;792.47;;;716.70;;
59474;SDS011;45288;51.136;16.928;2023-04-15T02:03:49;788.92;;;713.25;;
59474;SDS011;45288;51.136;16.928;2023-04-15T02:06:15;787.70;;;712.50;;
59474;SDS011;45288;51.136;16.928;2023-04-15T02:08:40;803.13;;;726.63;;
59474;SDS011;45288;51.136;16.928;2023-04-15T02:11:06;796.67;;;721.17;;
59474;SDS011;45288;51.136;16.928;2023-04-15T02:13:32;830.28;;;752.33;;
59474;SDS011;45288;51.136;16.928;2023-04-15T02:15:58;791.50;;;716.30;;
59474;SDS011;45288;51.136;16.928;2023-04-15T02:18:24;782.15;;;706.30;;
59474;SDS011;45288;51.136;16.928;2023-04-15T02:20:51;799.38;;;723.25;;
59474;SDS011;45288;51.136;16.928;2023-04-15T02:23:16;799.88;;;724.08;;
59474;SDS011;45288;51.136;16.928;2023-04-15T02:25:42;798.80;;;722.88;;
59474;SDS011;45288;51.136;16.928;2023-04-15T02:28:08;801.50;;;726.00;;
59474;SDS011;45288;51.136;16.928;2023-04-15T02:30:34;828.15;;;750.70;;
59474;SDS011;45288;51.136;16.928;2023-04-15T02:33:01;810.55;;;734.97;;
59474;SDS011;45288;51.136;16.928;2023-04-15T02:35:26;820.47;;;743.00;;
59474;SDS011;45288;51.136;16.928;2023-04-15T02:37:52;817.72;;;740.83;;
59474;SDS011;45288;51.136;16.928;2023-04-15T02:40:18;809.05;;;732.65;;
59474;SDS011;45288;51.136;16.928;2023-04-15T02:42:44;799.10;;;723.13;;
59474;SDS011;45288;51.136;16.928;2023-04-15T02:45:12;814.23;;;737.60;;
59474;SDS011;45288;51.136;16.928;2023-04-15T02:47:39;822.93;;;745.83;;
59474;SDS011;45288;51.136;16.928;2023-04-15T02:50:07;830.03;;;753.35;;
59474;SDS011;45288;51.136;16.928;2023-04-15T02:52:33;817.13;;;740.13;;
59474;SDS011;45288;51.136;16.928;2023-04-15T02:54:59;825.45;;;748.50;;
59474;SDS011;45288;51.136;16.928;2023-04-15T02:57:28;830.42;;;753.22;;
59474;SDS011;45288;51.136;16.928;2023-04-15T02:59:56;829.95;;;753.00;;
59474;SDS011;45288;51.136;16.928;2023-04-15T03:02:22;838.47;;;760.22;;
59474;SDS011;45288;51.136;16.928;2023-04-15T03:04:48;832.45;;;753.65;;
59474;SDS011;45288;51.136;16.928;2023-04-15T03:07:13;839.00;;;759.92;;
59474;SDS011;45288;51.136;16.928;2023-04-15T03:09:39;862.50;;;782.50;;
59474;SDS011;45288;51.136;16.928;2023-04-15T03:12:06;840.45;;;761.85;;
59474;SDS011;45288;51.136;16.928;2023-04-15T03:14:31;846.03;;;767.30;;
59474;SDS011;45288;51.136;16.928;2023-04-15T03:16:57;832.20;;;754.63;;
59474;SDS011;45288;51.136;16.928;2023-04-15T03:19:24;818.08;;;740.50;;
59474;SDS011;45288;51.136;16.928;2023-04-15T03:21:49;831.78;;;754.33;;
59474;SDS011;45288;51.136;16.928;2023-04-15T03:24:17;836.72;;;758.33;;
59474;SDS011;45288;51.136;16.928;2023-04-15T03:26:43;833.65;;;755.58;;
59474;SDS011;45288;51.136;16.928;2023-04-15T03:29:14;791.40;;;715.38;;
59474;SDS011;45288;51.136;16.928;2023-04-15T03:31:40;790.03;;;714.60;;
59474;SDS011;45288;51.136;16.928;2023-04-15T03:34:05;802.20;;;726.33;;
59474;SDS011;45288;51.136;16.928;2023-04-15T03:36:31;794.50;;;717.83;;
59474;SDS011;45288;51.136;16.928;2023-04-15T03:38:58;799.23;;;722.63;;
59474;SDS011;45288;51.136;16.928;2023-04-15T03:41:23;802.05;;;725.28;;
59474;SDS011;45288;51.136;16.928;2023-04-15T03:43:49;794.90;;;718.27;;
59474;SDS011;45288;51.136;16.928;2023-04-15T03:46:16;779.55;;;703.65;;
59474;SDS011;45288;51.136;16.928;2023-04-15T03:48:42;820.10;;;742.13;;
59474;SDS011;45288;51.136;16.928;2023-04-15T03:51:08;874.42;;;791.25;;
59474;SDS011;45288;51.136;16.928;2023-04-15T03:53:33;876.63;;;791.55;;
59474;SDS011;45288;51.136;16.928;2023-04-15T03:55:59;867.90;;;784.90;;
59474;SDS011;45288;51.136;16.928;2023-04-15T03:58:25;843.90;;;761.17;;
59474;SDS011;45288;51.136;16.928;2023-04-15T04:00:50;821.37;;;739.60;;
59474;SDS011;45288;51.136;16.928;2023-04-15T04:03:16;816.28;;;735.33;;
59474;SDS011;45288;51.136;16.928;2023-04-15T04:05:42;816.72;;;735.47;;
59474;SDS011;45288;51.136;16.928;2023-04-15T04:08:08;802.28;;;721.67;;
59474;SDS011;45288;51.136;16.928;2023-04-15T04:10:34;828.43;;;747.17;;
59474;SDS011;45288;51.136;16.928;2023-04-15T04:13:00;812.70;;;732.47;;
59474;SDS011;45288;51.136;16.928;2023-04-15T04:15:26;813.10;;;733.13;;
59474;SDS011;45288;51.136;16.928;2023-04-15T04:17:52;793.60;;;714.75;;
59474;SDS011;45288;51.136;16.928;2023-04-15T04:20:17;780.05;;;702.17;;
59474;SDS011;45288;51.136;16.928;2023-04-15T04:22:43;847.33;;;768.67;;
59474;SDS011;45288;51.136;16.928;2023-04-15T04:25:09;832.53;;;755.83;;
59474;SDS011;45288;51.136;16.928;2023-04-15T04:27:35;836.88;;;759.53;;
59474;SDS011;45288;51.136;16.928;2023-04-15T04:30:01;831.08;;;754.67;;
59474;SDS011;45288;51.136;16.928;2023-04-15T04:32:26;819.80;;;743.00;;
59474;SDS011;45288;51.136;16.928;2023-04-15T04:34:52;758.10;;;684.30;;
59474;SDS011;45288;51.136;16.928;2023-04-15T04:37:18;783.67;;;708.47;;
59474;SDS011;45288;51.136;16.928;2023-04-15T04:39:43;758.13;;;683.85;;
59474;SDS011;45288;51.136;16.928;2023-04-15T04:42:09;791.83;;;716.50;;
59474;SDS011;45288;51.136;16.928;2023-04-15T04:44:34;680.73;;;597.37;;
59474;SDS011;45288;51.136;16.928;2023-04-15T04:47:00;761.63;;;684.47;;
59474;SDS011;45288;51.136;16.928;2023-04-15T04:49:26;716.23;;;639.20;;
59474;SDS011;45288;51.136;16.928;2023-04-15T04:51:51;671.25;;;589.35;;
59474;SDS011;45288;51.136;16.928;2023-04-15T04:54:17;663.72;;;564.03;;
59474;SDS011;45288;51.136;16.928;2023-04-15T04:56:43;663.88;;;565.22;;
59474;SDS011;45288;51.136;16.928;2023-04-15T04:59:08;742.92;;;666.67;;
59474;SDS011;45288;51.136;16.928;2023-04-15T05:01:34;712.33;;;635.88;;
59474;SDS011;45288;51.136;16.928;2023-04-15T05:04:00;722.97;;;647.43;;
59474;SDS011;45288;51.136;16.928;2023-04-15T05:06:25;716.83;;;642.70;;
59474;SDS011;45288;51.136;16.928;2023-04-15T05:08:52;745.65;;;669.67;;
59474;SDS011;45288;51.136;16.928;2023-04-15T05:11:17;748.15;;;672.83;;
59474;SDS011;45288;51.136;16.928;2023-04-15T05:13:43;746.03;;;669.80;;
59474;SDS011;45288;51.136;16.928;2023-04-15T05:16:08;753.67;;;678.93;;
59474;SDS011;45288;51.136;16.928;2023-04-15T05:18:34;782.43;;;706.03;;
59474;SDS011;45288;51.136;16.928;2023-04-15T05:21:01;753.92;;;678.15;;
59474;SDS011;45288;51.136;16.928;2023-04-15T05:23:26;780.22;;;703.35;;
59474;SDS011;45288;51.136;16.928;2023-04-15T05:25:52;764.35;;;688.05;;
59474;SDS011;45288;51.136;16.928;2023-04-15T05:28:18;759.80;;;683.70;;
59474;SDS011;45288;51.136;16.928;2023-04-15T05:30:43;801.57;;;723.60;;
59474;SDS011;45288;51.136;16.928;2023-04-15T05:33:09;760.17;;;682.08;;
59474;SDS011;45288;51.136;16.928;2023-04-15T05:35:35;779.47;;;702.45;;
59474;SDS011;45288;51.136;16.928;2023-04-15T05:38:00;768.70;;;693.05;;
59474;SDS011;45288;51.136;16.928;2023-04-15T05:40:26;778.17;;;700.20;;
59474;SDS011;45288;51.136;16.928;2023-04-15T05:42:52;794.28;;;716.03;;
59474;SDS011;45288;51.136;16.928;2023-04-15T05:45:18;749.00;;;673.05;;
59474;SDS011;45288;51.136;16.928;2023-04-15T05:47:43;758.50;;;683.13;;
59474;SDS011;45288;51.136;16.928;2023-04-15T05:50:09;760.57;;;685.43;;
59474;SDS011;45288;51.136;16.928;2023-04-15T05:52:35;757.65;;;682.47;;
59474;SDS011;45288;51.136;16.928;2023-04-15T05:55:01;779.60;;;703.03;;
59474;SDS011;45288;51.136;16.928;2023-04-15T05:57:26;748.37;;;670.40;;
59474;SDS011;45288;51.136;16.928;2023-04-15T05:59:52;763.70;;;687.17;;
59474;SDS011;45288;51.136;16.928;2023-04-15T06:02:18;757.27;;;680.67;;
59474;SDS011;45288;51.136;16.928;2023-04-15T06:04:43;756.40;;;678.83;;
59474;SDS011;45288;51.136;16.928;2023-04-15T06:07:09;779.85;;;702.63;;
59474;SDS011;45288;51.136;16.928;2023-04-15T06:09:35;772.15;;;696.15;;
59474;SDS011;45288;51.136;16.928;2023-04-15T06:12:00;754.25;;;679.28;;
59474;SDS011;45288;51.136;16.928;2023-04-15T06:14:26;771.42;;;695.28;;
59474;SDS011;45288;51.136;16.928;2023-04-15T06:16:52;777.25;;;701.22;;
59474;SDS011;45288;51.136;16.928;2023-04-15T06:19:17;781.40;;;705.83;;
59474;SDS011;45288;51.136;16.928;2023-04-15T06:21:44;785.00;;;709.33;;
59474;SDS011;45288;51.136;16.928;2023-04-15T06:24:10;784.67;;;708.30;;
59474;SDS011;45288;51.136;16.928;2023-04-15T06:26:35;808.53;;;730.00;;
59474;SDS011;45288;51.136;16.928;2023-04-15T06:29:01;823.80;;;746.72;;
59474;SDS011;45288;51.136;16.928;2023-04-15T06:31:26;828.27;;;749.83;;
59474;SDS011;45288;51.136;16.928;2023-04-15T06:33:52;797.37;;;720.00;;
59474;SDS011;45288;51.136;16.928;2023-04-15T06:36:18;775.73;;;700.33;;
59474;SDS011;45288;51.136;16.928;2023-04-15T06:38:43;779.35;;;702.85;;
59474;SDS011;45288;51.136;16.928;2023-04-15T06:41:09;765.17;;;688.65;;
59474;SDS011;45288;51.136;16.928;2023-04-15T06:43:35;771.92;;;694.92;;
59474;SDS011;45288;51.136;16.928;2023-04-15T06:46:00;792.42;;;715.08;;
59474;SDS011;45288;51.136;16.928;2023-04-15T06:48:26;780.15;;;703.53;;
59474;SDS011;45288;51.136;16.928;2023-04-15T06:50:52;780.05;;;703.33;;
59474;SDS011;45288;51.136;16.928;2023-04-15T06:53:18;765.13;;;689.33;;
59474;SDS011;45288;51.136;16.928;2023-04-15T06:55:44;772.17;;;695.33;;
59474;SDS011;45288;51.136;16.928;2023-04-15T06:58:10;773.85;;;697.08;;
59474;SDS011;45288;51.136;16.928;2023-04-15T07:00:36;786.33;;;709.47;;
59474;SDS011;45288;51.136;16.928;2023-04-15T07:03:03;787.53;;;710.63;;
59474;SDS011;45288;51.136;16.928;2023-04-15T07:05:29;789.45;;;712.05;;
59474;SDS011;45288;51.136;16.928;2023-04-15T07:07:56;791.95;;;715.30;;
59474;SDS011;45288;51.136;16.928;2023-04-15T07:10:22;774.03;;;698.58;;
59474;SDS011;45288;51.136;16.928;2023-04-15T07:12:48;803.63;;;725.85;;
59474;SDS011;45288;51.136;16.928;2023-04-15T07:15:15;813.58;;;736.00;;
59474;SDS011;45288;51.136;16.928;2023-04-15T07:17:40;823.63;;;744.22;;
59474;SDS011;45288;51.136;16.928;2023-04-15T07:20:07;803.67;;;726.13;;
59474;SDS011;45288;51.136;16.928;2023-04-15T07:22:33;824.78;;;745.28;;
59474;SDS011;45288;51.136;16.928;2023-04-15T07:24:59;814.50;;;735.78;;
59474;SDS011;45288;51.136;16.928;2023-04-15T07:27:24;815.35;;;736.65;;
59474;SDS011;45288;51.136;16.928;2023-04-15T07:29:50;831.75;;;751.83;;
59474;SDS011;45288;51.136;16.928;2023-04-15T07:32:16;810.65;;;731.85;;
59474;SDS011;45288;51.136;16.928;2023-04-15T07:34:42;853.55;;;772.80;;
59474;SDS011;45288;51.136;16.928;2023-04-15T07:37:08;846.58;;;767.22;;
59474;SDS011;45288;51.136;16.928;2023-04-15T07:39:34;847.90;;;768.00;;
59474;SDS011;45288;51.136;16.928;2023-04-15T07:41:59;804.90;;;726.63;;
59474;SDS011;45288;51.136;16.928;2023-04-15T07:44:26;843.65;;;763.95;;
59474;SDS011;45288;51.136;16.928;2023-04-15T07:46:52;783.67;;;708.28;;
59474;SDS011;45288;51.136;16.928;2023-04-15T07:49:18;757.40;;;683.95;;
59474;SDS011;45288;51.136;16.928;2023-04-15T07:51:46;773.85;;;699.35;;
59474;SDS011;45288;51.136;16.928;2023-04-15T07:54:13;779.15;;;704.35;;
59474;SDS011;45288;51.136;16.928;2023-04-15T07:56:39;791.30;;;715.63;;
59474;SDS011;45288;51.136;16.928;2023-04-15T07:59:05;813.83;;;738.27;;
59474;SDS011;45288;51.136;16.928;2023-04-15T08:01:30;793.43;;;718.33;;
59474;SDS011;45288;51.136;16.928;2023-04-15T08:04:00;795.78;;;720.90;;
59474;SDS011;45288;51.136;16.928;2023-04-15T08:06:25;795.85;;;720.75;;
59474;SDS011;45288;51.136;16.928;2023-04-15T08:08:51;815.60;;;739.47;;
59474;SDS011;45288;51.136;16.928;2023-04-15T08:11:19;789.83;;;715.30;;
59474;SDS011;45288;51.136;16.928;2023-04-15T08:13:46;829.60;;;752.75;;
59474;SDS011;45288;51.136;16.928;2023-04-15T08:16:12;920.27;;;839.60;;
59474;SDS011;45288;51.136;16.928;2023-04-15T08:18:38;925.77;;;843.30;;
59474;SDS011;45288;51.136;16.928;2023-04-15T08:21:04;1111.80;;;999.90;;
59474;SDS011;45288;51.136;16.928;2023-04-15T08:23:30;1071.63;;;976.10;;
59474;SDS011;45288;51.136;16.928;2023-04-15T08:25:56;1110.80;;;999.90;;
59474;SDS011;45288;51.136;16.928;2023-04-15T08:28:22;1051.10;;;954.05;;
59474;SDS011;45288;51.136;16.928;2023-04-15T08:30:47;960.40;;;865.17;;
59474;SDS011;45288;51.136;16.928;2023-04-15T08:33:13;956.03;;;860.13;;
59474;SDS011;45288;51.136;16.928;2023-04-15T08:35:38;945.93;;;850.73;;
59474;SDS011;45288;51.136;16.928;2023-04-15T08:38:04;979.90;;;886.15;;
59474;SDS011;45288;51.136;16.928;2023-04-15T08:40:39;1015.50;;;922.97;;
59474;SDS011;45288;51.136;16.928;2023-04-15T08:43:05;954.35;;;872.30;;
59474;SDS011;45288;51.136;16.928;2023-04-15T08:45:32;1023.95;;;932.67;;
59474;SDS011;45288;51.136;16.928;2023-04-15T08:47:58;1025.85;;;936.28;;
59474;SDS011;45288;51.136;16.928;2023-04-15T08:50:24;1055.68;;;961.42;;
59474;SDS011;45288;51.136;16.928;2023-04-15T08:52:53;980.15;;;894.65;;
59474;SDS011;45288;51.136;16.928;2023-04-15T08:55:19;1058.38;;;964.22;;
59474;SDS011;45288;51.136;16.928;2023-04-15T08:57:45;1023.17;;;931.27;;
59474;SDS011;45288;51.136;16.928;2023-04-15T09:00:11;975.43;;;890.23;;
59474;SDS011;45288;51.136;16.928;2023-04-15T09:02:38;1048.28;;;956.25;;
59474;SDS011;45288;51.136;16.928;2023-04-15T09:05:04;1057.03;;;962.08;;
59474;SDS011;45288;51.136;16.928;2023-04-15T09:07:32;1005.78;;;913.33;;
59474;SDS011;45288;51.136;16.928;2023-04-15T09:09:58;1080.53;;;991.13;;
59474;SDS011;45288;51.136;16.928;2023-04-15T09:12:23;1025.27;;;931.73;;
59474;SDS011;45288;51.136;16.928;2023-04-15T09:14:49;1068.50;;;976.33;;
59474;SDS011;45288;51.136;16.928;2023-04-15T09:17:17;1087.15;;;999.90;;
59474;SDS011;45288;51.136;16.928;2023-04-15T09:19:43;1050.13;;;956.08;;
59474;SDS011;45288;51.136;16.928;2023-04-15T09:22:09;1084.33;;;993.37;;
59474;SDS011;45288;51.136;16.928;2023-04-15T09:24:35;1082.22;;;992.60;;
59474;SDS011;45288;51.136;16.928;2023-04-15T09:27:06;1097.78;;;999.90;;
59474;SDS011;45288;51.136;16.928;2023-04-15T09:29:32;1099.38;;;999.90;;
59474;SDS011;45288;51.136;16.928;2023-04-15T09:32:15;1080.60;;;989.90;;
59474;SDS011;45288;51.136;16.928;2023-04-15T09:34:41;1111.45;;;999.90;;
59474;SDS011;45288;51.136;16.928;2023-04-15T09:37:07;1104.87;;;999.90;;
59474;SDS011;45288;51.136;16.928;2023-04-15T09:40:08;1102.90;;;999.90;;
59474;SDS011;45288;51.136;16.928;2023-04-15T09:42:27;1106.82;;;999.90;;
59474;SDS011;45288;51.136;16.928;2023-04-15T09:44:53;1114.25;;;999.90;;
59474;SDS011;45288;51.136;16.928;2023-04-15T09:47:30;1108.65;;;999.90;;
59474;SDS011;45288;51.136;16.928;2023-04-15T09:49:59;1114.47;;;999.90;;
59474;SDS011;45288;51.136;16.928;2023-04-15T09:52:25;1124.60;;;999.90;;
59474;SDS011;45288;51.136;16.928;2023-04-15T09:54:52;1132.68;;;999.90;;
59474;SDS011;45288;51.136;16.928;2023-04-15T09:57:17;1107.13;;;999.90;;
59474;SDS011;45288;51.136;16.928;2023-04-15T09:59:43;1113.10;;;999.90;;
59474;SDS011;45288;51.136;16.928;2023-04-15T10:02:09;1104.50;;;999.90;;
59474;SDS011;45288;51.136;16.928;2023-04-15T10:04:38;1057.10;;;974.55;;
59474;SDS011;45288;51.136;16.928;2023-04-15T10:07:04;1079.70;;;995.22;;
59474;SDS011;45288;51.136;16.928;2023-04-15T10:09:30;1106.07;;;999.90;;
59474;SDS011;45288;51.136;16.928;2023-04-15T10:11:57;1129.65;;;999.90;;
59474;SDS011;45288;51.136;16.928;2023-04-15T10:14:23;1128.57;;;999.90;;
59474;SDS011;45288;51.136;16.928;2023-04-15T10:16:50;1119.32;;;999.90;;
59474;SDS011;45288;51.136;16.928;2023-04-15T10:19:17;1106.53;;;999.90;;
59474;SDS011;45288;51.136;16.928;2023-04-15T10:21:43;1115.50;;;999.90;;
59474;SDS011;45288;51.136;16.928;2023-04-15T10:24:09;1089.22;;;995.15;;
59474;SDS011;45288;51.136;16.928;2023-04-15T10:26:35;1117.32;;;999.90;;
59474;SDS011;45288;51.136;16.928;2023-04-15T10:29:01;1109.67;;;999.90;;
59474;SDS011;45288;51.136;16.928;2023-04-15T10:31:28;1115.05;;;999.90;;
59474;SDS011;45288;51.136;16.928;2023-04-15T10:33:53;1080.30;;;990.00;;
59474;SDS011;45288;51.136;16.928;2023-04-15T10:36:20;1060.57;;;972.63;;
59474;SDS011;45288;51.136;16.928;2023-04-15T10:38:45;1082.10;;;992.53;;
59474;SDS011;45288;51.136;16.928;2023-04-15T10:41:12;961.67;;;882.70;;
59474;SDS011;45288;51.136;16.928;2023-04-15T10:43:38;1031.85;;;947.63;;
59474;SDS011;45288;51.136;16.928;2023-04-15T10:46:05;1082.13;;;994.08;;
59474;SDS011;45288;51.136;16.928;2023-04-15T10:48:30;1121.47;;;999.90;;
59474;SDS011;45288;51.136;16.928;2023-04-15T10:50:57;1087.60;;;999.65;;
59474;SDS011;45288;51.136;16.928;2023-04-15T10:53:28;1138.50;;;999.90;;
59474;SDS011;45288;51.136;16.928;2023-04-15T10:55:54;1039.68;;;954.13;;
59474;SDS011;45288;51.136;16.928;2023-04-15T10:58:24;790.28;;;722.65;;
59474;SDS011;45288;51.136;16.928;2023-04-15T11:00:50;848.55;;;777.05;;
59474;SDS011;45288;51.136;16.928;2023-04-15T11:03:38;712.92;;;651.25;;
59474;SDS011;45288;51.136;16.928;2023-04-15T11:06:04;736.60;;;673.95;;
59474;SDS011;45288;51.136;16.928;2023-04-15T11:08:52;780.08;;;713.42;;
59474;SDS011;45288;51.136;16.928;2023-04-15T11:11:18;671.60;;;613.00;;
59474;SDS011;45288;51.136;16.928;2023-04-15T11:13:48;749.25;;;684.83;;
59474;SDS011;45288;51.136;16.928;2023-04-15T11:16:14;1124.38;;;999.90;;
59474;SDS011;45288;51.136;16.928;2023-04-15T11:18:40;1071.32;;;984.17;;
59474;SDS011;45288;51.136;16.928;2023-04-15T11:21:06;1036.57;;;950.57;;
59474;SDS011;45288;51.136;16.928;2023-04-15T11:26:02;1119.20;;;999.90;;
59474;SDS011;45288;51.136;16.928;2023-04-15T11:28:31;1120.80;;;999.90;;
59474;SDS011;45288;51.136;16.928;2023-04-15T11:30:57;1107.20;;;999.90;;
59474;SDS011;45288;51.136;16.928;2023-04-15T11:33:23;945.75;;;866.83;;
59474;SDS011;45288;51.136;16.928;2023-04-15T11:35:50;872.22;;;799.90;;
59474;SDS011;45288;51.136;16.928;2023-04-15T11:38:17;855.85;;;786.47;;
59474;SDS011;45288;51.136;16.928;2023-04-15T11:40:42;895.97;;;820.85;;
59474;SDS011;45288;51.136;16.928;2023-04-15T11:43:12;978.87;;;899.93;;
59474;SDS011;45288;51.136;16.928;2023-04-15T11:45:51;987.67;;;906.00;;
59474;SDS011;45288;51.136;16.928;2023-04-15T11:48:17;912.55;;;837.83;;
59474;SDS011;45288;51.136;16.928;2023-04-15T11:50:43;1040.70;;;956.35;;
59474;SDS011;45288;51.136;16.928;2023-04-15T11:53:09;1049.07;;;964.40;;
59474;SDS011;45288;51.136;16.928;2023-04-15T11:55:45;1120.43;;;999.90;;
59474;SDS011;45288;51.136;16.928;2023-04-15T11:58:15;1110.67;;;999.90;;
59474;SDS011;45288;51.136;16.928;2023-04-15T12:00:44;1033.75;;;948.88;;
59474;SDS011;45288;51.136;16.928;2023-04-15T12:03:16;1077.35;;;991.78;;
59474;SDS011;45288;51.136;16.928;2023-04-15T12:08:46;959.03;;;882.83;;
59474;SDS011;45288;51.136;16.928;2023-04-15T12:11:13;963.05;;;886.20;;
59474;SDS011;45288;51.136;16.928;2023-04-15T12:13:42;863.58;;;792.88;;
59474;SDS011;45288;51.136;16.928;2023-04-15T12:16:08;866.30;;;796.55;;
59474;SDS011;45288;51.136;16.928;2023-04-15T12:18:33;901.10;;;828.23;;
59474;SDS011;45288;51.136;16.928;2023-04-15T12:21:11;929.45;;;855.67;;
59474;SDS011;45288;51.136;16.928;2023-04-15T12:23:37;964.35;;;888.33;;
59474;SDS011;45288;51.136;16.928;2023-04-15T12:26:06;999.55;;;920.20;;
59474;SDS011;45288;51.136;16.928;2023-04-15T12:28:33;1058.10;;;973.90;;
59474;SDS011;45288;51.136;16.928;2023-04-15T12:30:59;1135.95;;;999.90;;
59474;SDS011;45288;51.136;16.928;2023-04-15T12:33:32;1179.63;;;999.90;;
59474;SDS011;45288;51.136;16.928;2023-04-15T12:35:58;1146.85;;;999.90;;
59474;SDS011;45288;51.136;16.928;2023-04-15T12:38:23;1153.37;;;999.90;;
59474;SDS011;45288;51.136;16.928;2023-04-15T12:40:49;1152.72;;;999.90;;
59474;SDS011;45288;51.136;16.928;2023-04-15T12:43:15;1134.17;;;999.90;;
59474;SDS011;45288;51.136;16.928;2023-04-15T12:45:41;1156.10;;;999.90;;
59474;SDS011;45288;51.136;16.928;2023-04-15T12:48:07;1170.60;;;999.90;;
59474;SDS011;45288;51.136;16.928;2023-04-15T12:50:34;1175.20;;;999.90;;
59474;SDS011;45288;51.136;16.928;2023-04-15T12:52:59;1195.13;;;999.90;;
59474;SDS011;45288;51.136;16.928;2023-04-15T12:55:25;1183.93;;;999.90;;
59474;SDS011;45288;51.136;16.928;2023-04-15T12:57:51;1170.50;;;999.90;;
59474;SDS011;45288;51.136;16.928;2023-04-15T13:00:16;1171.38;;;999.90;;
59474;SDS011;45288;51.136;16.928;2023-04-15T13:02:42;1184.07;;;999.90;;
59474;SDS011;45288;51.136;16.928;2023-04-15T13:05:08;1200.25;;;999.90;;
59474;SDS011;45288;51.136;16.928;2023-04-15T13:07:34;1186.68;;;999.90;;
59474;SDS011;45288;51.136;16.928;2023-04-15T13:10:00;1187.73;;;999.90;;
59474;SDS011;45288;51.136;16.928;2023-04-15T13:12:26;1190.07;;;999.90;;
59474;SDS011;45288;51.136;16.928;2023-04-15T13:14:51;1193.32;;;999.90;;
59474;SDS011;45288;51.136;16.928;2023-04-15T13:17:17;1178.43;;;999.90;;
59474;SDS011;45288;51.136;16.928;2023-04-15T13:19:44;1191.03;;;999.90;;
59474;SDS011;45288;51.136;16.928;2023-04-15T13:22:10;1183.47;;;999.90;;
59474;SDS011;45288;51.136;16.928;2023-04-15T13:24:36;1197.97;;;999.90;;
59474;SDS011;45288;51.136;16.928;2023-04-15T13:27:03;1190.50;;;999.90;;
59474;SDS011;45288;51.136;16.928;2023-04-15T13:29:29;1190.47;;;999.90;;
59474;SDS011;45288;51.136;16.928;2023-04-15T13:31:55;1200.43;;;999.90;;
59474;SDS011;45288;51.136;16.928;2023-04-15T13:34:20;1177.22;;;999.90;;
59474;SDS011;45288;51.136;16.928;2023-04-15T13:36:46;1196.27;;;999.90;;
59474;SDS011;45288;51.136;16.928;2023-04-15T13:39:12;1174.30;;;999.90;;
59474;SDS011;45288;51.136;16.928;2023-04-15T13:41:37;1189.50;;;999.90;;
59474;SDS011;45288;51.136;16.928;2023-04-15T13:44:03;1151.67;;;999.90;;